Noatak Airport Noatak US
ICAO: PAWN
IATA:
Category: Medium
Scheduled Services:

Elevation: 88 ft
TransAlt. 18000 ft.

Airport Communications:
AWOS 3:135.75
ANCHORAGE CNTR:119.2
KOTZEBUE RDO:122.4
CTAF/UNICOM:122.8

PAWN Zoom In..

Runways:

(A) RW 01 length 3992 ft width 60 ft
---- / hdg 7

(B) RW 19 length 3992 ft width 60 ft
---- / hdg 187

Location; PAWN
Day. 25 / Time. 11.56 Zulu
* Altimeter: 29.34
* Temperature: 02° c. 35.6°f.
* Wind from: 110° Speed 09 kn.
Dewpoint: -02° c.
Visibility: 10 Statute Miles.
Clouds: Scattered 5500 ft.
Clouds: Overcast 7500 ft.

PAWN 251156Z AUTO 11009KT 10SM SCT055 OVC075 02/M02 A2934 RMK AO2 SLP951 70006 T00171022 10022 20000 51014 FZRANO $


Wind From 110°
Speed 09 kn.

  YouTube Music Video
 
jpsmedia.com for Web Design  worldairports.se 2018   terms of use